createdAt,value
2017-03-18T00:00:37.733Z,67.69
2017-03-18T00:01:48.079Z,67.78
2017-03-18T00:02:58.453Z,67.69
2017-03-18T00:04:08.817Z,67.11
2017-03-18T00:05:18.832Z,67.69
2017-03-18T00:06:29.166Z,67.69
2017-03-18T00:07:39.526Z,67.78
2017-03-18T00:08:49.860Z,67.27
2017-03-18T00:09:59.884Z,66.92
2017-03-18T00:11:10.232Z,66.83
2017-03-18T00:12:20.579Z,67.59
2017-03-18T00:13:30.611Z,67.69
2017-03-18T00:14:40.965Z,67.59
2017-03-18T00:15:51.293Z,67.78
2017-03-18T00:17:01.307Z,67.69
2017-03-18T00:18:11.638Z,67.88
2017-03-18T00:19:22.025Z,67.59
2017-03-18T00:20:32.359Z,67.69
2017-03-18T00:21:42.385Z,67.02
2017-03-18T00:22:52.726Z,67.08
2017-03-18T00:24:02.456Z,67.11
2017-03-18T00:25:12.804Z,67.18
2017-03-18T00:26:22.836Z,67.21
2017-03-18T00:27:33.167Z,67.11
2017-03-18T00:28:43.529Z,67.11
2017-03-18T00:29:53.618Z,67.11
2017-03-18T00:31:03.958Z,66.83
2017-03-18T00:32:14.280Z,67.3
2017-03-18T00:33:24.307Z,67.11
2017-03-18T00:34:34.656Z,67.11
2017-03-18T00:35:45.002Z,67.11
2017-03-18T00:36:55.332Z,67.11
2017-03-18T00:38:05.677Z,67.02
2017-03-18T00:39:16.046Z,66.92
2017-03-18T00:40:26.390Z,67.3
2017-03-18T00:41:36.428Z,67.11
2017-03-18T00:42:46.776Z,67.11
2017-03-18T00:43:57.130Z,67.3
2017-03-18T00:45:07.467Z,67.3
2017-03-18T00:46:17.799Z,67.3
2017-03-18T00:47:28.136Z,67.4
2017-03-18T00:48:37.877Z,67.21
2017-03-18T00:49:48.238Z,67.3
2017-03-18T00:50:58.587Z,67.88
2017-03-18T00:52:08.931Z,67.69
2017-03-18T00:53:19.295Z,67.65
2017-03-18T00:54:29.637Z,67.78
2017-03-18T00:55:39.681Z,67.55
2017-03-18T00:56:50.021Z,66.7
2017-03-18T00:58:00.352Z,67.46
2017-03-18T00:59:10.689Z,67.08
2017-03-18T01:00:21.039Z,67.65
2017-03-18T01:01:31.385Z,67.36
2017-03-18T01:02:41.728Z,67.36
2017-03-18T01:03:51.760Z,67.84
2017-03-18T01:05:02.105Z,67.84
2017-03-18T01:06:12.433Z,67.18
2017-03-18T01:07:22.154Z,67.55
2017-03-18T01:08:32.175Z,66.99
2017-03-18T01:09:42.202Z,67.36
2017-03-18T01:10:52.564Z,67.18
2017-03-18T01:12:02.910Z,67.14
2017-03-18T01:13:12.936Z,67.14
2017-03-18T01:14:23.305Z,67.52
2017-03-18T01:15:33.328Z,67.62
2017-03-18T01:16:43.678Z,67.62
2017-03-18T01:17:53.384Z,67.81
2017-03-18T01:19:03.732Z,67.62
2017-03-18T01:20:14.067Z,67.81
2017-03-18T01:21:24.104Z,67.62
2017-03-18T01:22:34.129Z,67.62
2017-03-18T01:23:44.476Z,67.05
2017-03-18T01:24:54.811Z,67.71
2017-03-18T01:26:04.845Z,67.52
2017-03-18T01:27:15.179Z,67.71
2017-03-18T01:28:25.528Z,66.66
2017-03-18T01:29:35.856Z,66.85
2017-03-18T01:30:46.222Z,67.62
2017-03-18T01:31:56.571Z,67.33
2017-03-18T01:33:06.974Z,67.24
2017-03-18T01:34:17.335Z,67.14
2017-03-18T01:35:27.055Z,67.24
2017-03-18T01:36:37.096Z,67.05
2017-03-18T01:37:47.123Z,67.33
2017-03-18T01:38:57.154Z,66.95
2017-03-18T01:40:07.505Z,67.24
2017-03-18T01:41:17.547Z,67.14
2017-03-18T01:42:27.902Z,67.24
2017-03-18T01:43:38.238Z,67.14
2017-03-18T01:44:48.273Z,66.85
2017-03-18T01:45:58.616Z,67.24
2017-03-18T01:47:08.949Z,67.24
2017-03-18T01:48:18.974Z,66.95
2017-03-18T01:49:29.316Z,66.85
2017-03-18T01:50:39.351Z,67.24
2017-03-18T01:51:49.685Z,66.92
2017-03-18T01:53:00.025Z,66.95
2017-03-18T01:54:10.057Z,66.95
2017-03-18T01:55:20.398Z,67.24
2017-03-18T01:56:30.735Z,66.92
2017-03-18T01:57:41.064Z,66.82
2017-03-18T01:58:51.420Z,67.21
2017-03-18T02:00:01.752Z,67.11
2017-03-18T02:01:11.824Z,67.21
2017-03-18T02:02:22.170Z,67.01
2017-03-18T02:03:32.537Z,67.68
2017-03-18T02:04:42.879Z,67.68
2017-03-18T02:05:53.218Z,67.49
2017-03-18T02:07:03.557Z,66.92
2017-03-18T02:08:13.279Z,67.49
2017-03-18T02:09:23.314Z,67.68
2017-03-18T02:10:33.668Z,67.4
2017-03-18T02:11:44.003Z,67.58
2017-03-18T02:12:54.341Z,67.49
2017-03-18T02:14:04.718Z,67.58
2017-03-18T02:15:14.748Z,67.3
2017-03-18T02:16:25.089Z,67.3
2017-03-18T02:17:35.424Z,67.21
2017-03-18T02:18:45.450Z,67.21
2017-03-18T02:19:55.801Z,67.01
2017-03-18T02:21:05.821Z,67.01
2017-03-18T02:22:16.160Z,67.3
2017-03-18T02:23:26.499Z,67.11
2017-03-18T02:24:36.845Z,66.72
2017-03-18T02:25:47.193Z,66.88
2017-03-18T02:26:57.536Z,67.07
2017-03-18T02:28:07.562Z,66.69
2017-03-18T02:29:17.910Z,66.69
2017-03-18T02:30:28.252Z,66.78
2017-03-18T02:31:38.287Z,66.88
2017-03-18T02:32:48.632Z,67.17
2017-03-18T02:33:58.969Z,67.17
2017-03-18T02:35:09.318Z,66.88
2017-03-18T02:36:19.651Z,67.07
2017-03-18T02:37:29.992Z,66.98
2017-03-18T02:38:40.322Z,66.88
2017-03-18T02:39:50.037Z,66.78
2017-03-18T02:40:59.777Z,66.88
2017-03-18T02:42:10.133Z,67.07
2017-03-18T02:43:20.464Z,67.27
2017-03-18T02:44:30.827Z,67.07
2017-03-18T02:45:40.863Z,67.46
2017-03-18T02:46:51.263Z,67.36
2017-03-18T02:48:01.643Z,66.98
2017-03-18T02:49:11.664Z,66.98
2017-03-18T02:50:21.696Z,66.98
2017-03-18T02:51:32.044Z,67.17
2017-03-18T02:52:42.397Z,66.98
2017-03-18T02:53:52.145Z,67.04
2017-03-18T02:55:02.500Z,66.85
2017-03-18T02:56:12.542Z,67.14
2017-03-18T02:57:22.912Z,67.23
2017-03-18T02:58:33.293Z,67.04
2017-03-18T02:59:43.331Z,66.94
2017-03-18T03:00:53.683Z,67.14
2017-03-18T03:02:04.013Z,67.42
2017-03-18T03:32:45.457Z,64.94
2017-03-18T03:33:55.818Z,65.03
2017-03-18T03:35:06.156Z,65.8
2017-03-18T03:36:16.161Z,67.03
2017-03-18T03:37:26.487Z,67.41
2017-03-18T03:38:36.822Z,67.41
2017-03-18T03:39:46.841Z,67.13
2017-03-18T03:40:57.176Z,67.25
2017-03-18T03:42:07.516Z,67.16
2017-03-18T03:43:17.559Z,67.44
2017-03-18T03:44:27.573Z,67.07
2017-03-18T03:45:37.891Z,67.57
2017-03-18T03:46:48.234Z,67.29
2017-03-18T03:47:58.574Z,67.38
2017-03-18T03:49:08.603Z,67.67
2017-03-18T03:50:19.171Z,67.41
2017-03-18T03:51:29.545Z,67.61
2017-03-18T03:52:39.881Z,66.75
2017-03-18T03:53:49.962Z,67.07
2017-03-18T03:54:59.986Z,66.69
2017-03-18T03:56:10.328Z,66.78
2017-03-18T03:57:20.359Z,67.35
2017-03-18T03:58:30.690Z,66.97
2017-03-18T03:59:41.037Z,66.88
2017-03-18T04:00:51.383Z,67.1
2017-03-18T04:02:01.721Z,67
2017-03-18T04:03:11.752Z,66.44
2017-03-18T04:04:22.110Z,66.82
2017-03-18T04:05:32.141Z,66.72
2017-03-18T04:06:42.181Z,66.24
2017-03-18T04:07:52.555Z,66.28
2017-03-18T04:09:02.600Z,66.38
2017-03-18T04:10:12.948Z,66.47
2017-03-18T04:11:23.287Z,66.09
2017-03-18T04:12:33.629Z,66.09
2017-03-18T04:13:43.953Z,66.28
2017-03-18T04:14:53.678Z,66.09
2017-03-18T04:16:04.024Z,66.18
2017-03-18T04:17:14.366Z,66.09
2017-03-18T04:18:24.717Z,66.38
2017-03-18T04:19:35.047Z,66.28
2017-03-18T04:20:45.078Z,66.18
2017-03-18T04:21:55.428Z,66.38
2017-03-18T04:23:05.460Z,66.18
2017-03-18T04:24:15.469Z,66.28
2017-03-18T04:25:25.796Z,66.47
2017-03-18T04:26:36.123Z,66.38
2017-03-18T04:27:46.459Z,66.47
2017-03-18T04:28:56.522Z,66.78
2017-03-18T04:30:06.856Z,66.94
2017-03-18T04:31:16.876Z,66.75
2017-03-18T04:32:26.895Z,66.75
2017-03-18T04:33:37.246Z,66.5
2017-03-18T04:34:47.611Z,66.75
2017-03-18T04:35:57.937Z,66.5
2017-03-18T04:37:07.982Z,66.85
2017-03-18T04:38:18.323Z,66.85
2017-03-18T04:39:28.350Z,66.56
2017-03-18T04:40:38.712Z,66.5
2017-03-18T04:41:48.728Z,66.6
2017-03-18T04:42:58.448Z,66.47
2017-03-18T04:44:08.786Z,67.07
2017-03-18T04:45:19.178Z,67.23
2017-03-18T04:46:29.507Z,67.04
2017-03-18T04:47:39.825Z,67.14
2017-03-18T04:48:50.164Z,67.04
2017-03-18T04:50:00.520Z,66.66
2017-03-18T04:51:11.081Z,66.75
2017-03-18T04:52:21.453Z,67.14
2017-03-18T04:53:31.799Z,66.75
2017-03-18T04:54:42.154Z,67.14
2017-03-18T04:55:52.480Z,66.85
2017-03-18T04:57:02.498Z,67.14
2017-03-18T04:58:12.849Z,66.94
2017-03-18T04:59:23.200Z,67.07
2017-03-18T05:00:32.589Z,66.85
2017-03-18T05:01:42.917Z,67.07
2017-03-18T05:02:53.252Z,66.94
2017-03-18T05:04:03.588Z,66.94
2017-03-18T05:05:13.608Z,66.66
2017-03-18T05:06:23.974Z,66.75
2017-03-18T05:07:34.304Z,66.66
2017-03-18T05:08:44.343Z,67.04
2017-03-18T05:09:54.369Z,66.94
2017-03-18T05:11:04.709Z,66.28
2017-03-18T05:12:15.047Z,66.98
2017-03-18T05:13:25.067Z,66.5
2017-03-18T05:14:35.409Z,67.04
2017-03-18T05:15:45.763Z,66.85
2017-03-18T05:16:56.103Z,67.04
2017-03-18T05:18:06.127Z,66.85
2017-03-18T05:19:16.481Z,67.04
2017-03-18T05:20:26.815Z,67.04
2017-03-18T05:21:37.146Z,67.14
2017-03-18T05:22:46.862Z,67.04
2017-03-18T05:23:57.212Z,67.04
2017-03-18T05:25:07.590Z,66.94
2017-03-18T05:26:17.619Z,66.94
2017-03-18T05:27:27.954Z,66.75
2017-03-18T05:28:38.282Z,66.66
2017-03-18T05:29:48.304Z,67.04
2017-03-18T05:30:58.359Z,66.94
2017-03-18T05:32:08.692Z,67.04
2017-03-18T05:33:19.022Z,67.33
2017-03-18T05:34:29.352Z,67.04
2017-03-18T05:35:39.688Z,67.14
2017-03-18T05:36:50.038Z,67.14
2017-03-18T05:38:00.369Z,67.14
2017-03-18T05:39:10.425Z,67.23
2017-03-18T05:40:20.458Z,67.14
2017-03-18T05:41:30.796Z,67.14
2017-03-18T05:42:41.128Z,67.14
2017-03-18T05:43:51.494Z,67.14
2017-03-18T05:45:01.841Z,67.33
2017-03-18T05:46:12.184Z,67.23
2017-03-18T05:47:22.534Z,67.14
2017-03-18T05:48:32.871Z,66.85
2017-03-18T05:49:43.197Z,67.14
2017-03-18T05:50:53.224Z,66.94
2017-03-18T05:52:03.557Z,66.82
2017-03-18T05:53:13.884Z,67.14
2017-03-18T05:54:23.912Z,67.14
2017-03-18T05:55:34.242Z,67.04
2017-03-18T05:56:44.617Z,66.72
2017-03-18T05:57:54.971Z,66.94
2017-03-18T05:59:05.306Z,66.94
2017-03-18T06:00:15.647Z,66.91
2017-03-18T06:01:25.971Z,66.82
2017-03-18T06:02:36.310Z,67.2
2017-03-18T06:03:46.670Z,67.48
2017-03-18T06:04:57.013Z,67.29
2017-03-18T06:06:07.396Z,67.58
2017-03-18T06:07:17.415Z,67.58
2017-03-18T06:08:27.450Z,67.48
2017-03-18T06:09:37.783Z,67.48
2017-03-18T06:10:48.121Z,67.48
2017-03-18T06:11:58.468Z,67.2
2017-03-18T06:13:08.797Z,67
2017-03-18T06:14:19.154Z,67
2017-03-18T06:15:28.867Z,66.91
2017-03-18T06:16:39.206Z,66.91
2017-03-18T06:17:49.570Z,67
2017-03-18T06:18:59.917Z,67
2017-03-18T06:20:10.259Z,67
2017-03-18T06:21:20.290Z,67.1
2017-03-18T06:22:30.630Z,67
2017-03-18T06:23:40.648Z,67.1
2017-03-18T06:24:50.985Z,66.91
2017-03-18T06:26:01.334Z,66.72
2017-03-18T06:27:11.673Z,67.1
2017-03-18T06:28:21.699Z,67
2017-03-18T06:29:31.397Z,66.91
2017-03-18T06:30:41.432Z,67
2017-03-18T06:31:51.773Z,67.1
2017-03-18T06:33:02.115Z,67.1
2017-03-18T06:34:12.128Z,67.2
2017-03-18T06:35:22.148Z,67.2
2017-03-18T06:36:32.172Z,67
2017-03-18T06:37:41.875Z,66.63
2017-03-18T06:38:52.234Z,66.56
2017-03-18T06:40:02.572Z,66.85
2017-03-18T06:41:12.913Z,67.04
2017-03-18T06:42:22.930Z,66.47
2017-03-18T06:43:33.206Z,66.47
2017-03-18T06:44:43.249Z,67.04
2017-03-18T06:45:53.808Z,66.47
2017-03-18T06:47:04.156Z,67.04
2017-03-18T06:48:14.520Z,66.94
2017-03-18T06:49:24.869Z,66.94
2017-03-18T06:50:35.209Z,66.47
2017-03-18T06:51:45.268Z,66.47
2017-03-18T06:52:55.630Z,66.66
2017-03-18T06:54:05.667Z,66.47
2017-03-18T06:55:16.027Z,66.88
2017-03-18T06:56:26.393Z,66.88
2017-03-18T06:57:36.743Z,66.78
2017-03-18T06:58:46.461Z,66.69
2017-03-18T06:59:56.812Z,66.5
2017-03-18T07:01:06.526Z,66.98
2017-03-18T07:02:16.544Z,67.17
2017-03-18T07:03:26.566Z,66.78
2017-03-18T07:04:36.912Z,67.17
2017-03-18T07:05:46.920Z,66.98
2017-03-18T07:06:57.261Z,66.88
2017-03-18T07:08:07.280Z,66.98
2017-03-18T07:09:17.340Z,67.07
2017-03-18T07:10:27.697Z,66.78
2017-03-18T07:11:37.724Z,67.07
2017-03-18T07:12:48.061Z,66.5
2017-03-18T07:13:58.417Z,66.22
2017-03-18T07:15:08.439Z,66.35
2017-03-18T07:16:18.766Z,66.92
2017-03-18T07:17:29.084Z,66.63
2017-03-18T07:18:39.139Z,66.15
2017-03-18T07:19:49.498Z,66.82
2017-03-18T07:20:59.543Z,67.01
2017-03-18T07:22:09.889Z,67.4
2017-03-18T07:23:20.238Z,66.92
2017-03-18T07:24:30.263Z,67.21
2017-03-18T07:25:40.593Z,67.21
2017-03-18T07:26:50.604Z,67.11
2017-03-18T07:28:00.647Z,67.01
2017-03-18T07:29:10.673Z,67.01
2017-03-18T07:30:20.703Z,66.72
2017-03-18T07:31:30.737Z,67.49
2017-03-18T07:32:41.091Z,67.17
2017-03-18T07:33:51.116Z,67.36
2017-03-18T07:35:01.455Z,67.55
2017-03-18T07:36:11.794Z,67.55
2017-03-18T07:37:21.828Z,67.55
2017-03-18T07:38:32.167Z,67.65
2017-03-18T07:39:42.504Z,67.55
2017-03-18T07:40:52.850Z,67.55
2017-03-18T07:42:03.176Z,67.07
2017-03-18T07:43:13.524Z,67.07
2017-03-18T07:44:23.875Z,67.21
2017-03-18T07:45:34.217Z,67.11
2017-03-18T07:46:44.576Z,66.53
2017-03-18T07:47:54.917Z,66.63
2017-03-18T07:49:04.932Z,66.72
2017-03-18T07:50:14.973Z,66.63
2017-03-18T07:51:25.000Z,67.21
2017-03-18T07:52:35.344Z,67.21
2017-03-18T07:53:45.705Z,66.78
2017-03-18T07:54:55.440Z,67.07
2017-03-18T07:56:05.770Z,66.78
2017-03-18T07:57:16.099Z,67.07
2017-03-18T07:58:26.146Z,67.36
2017-03-18T07:59:36.490Z,67.11
2017-03-18T08:00:46.214Z,66.92
2017-03-18T08:01:56.550Z,66.82
2017-03-18T08:03:06.588Z,66.44
2017-03-18T08:04:16.945Z,66.25
2017-03-18T08:05:26.977Z,66.82
2017-03-18T08:06:37.003Z,67.11
2017-03-18T08:07:47.017Z,67.21
2017-03-18T08:08:57.371Z,66.72
2017-03-18T08:10:07.706Z,66.88
2017-03-18T08:11:18.041Z,67.55
2017-03-18T08:12:28.390Z,67.46
2017-03-18T08:13:38.417Z,67.07
2017-03-18T08:14:48.779Z,67.46
2017-03-18T08:15:59.145Z,67.36
2017-03-18T08:17:09.493Z,67.17
2017-03-18T08:18:19.831Z,67.36
2017-03-18T08:19:29.858Z,67.17
2017-03-18T08:20:39.888Z,67.07
2017-03-18T08:21:50.284Z,67.17
2017-03-18T08:23:00.623Z,67.17
2017-03-18T08:24:10.647Z,66.88
2017-03-18T08:25:21.032Z,66.98
2017-03-18T08:26:31.357Z,66.98
2017-03-18T08:27:41.725Z,67.07
2017-03-18T08:28:52.091Z,67.17
2017-03-18T08:30:02.104Z,66.78
2017-03-18T08:31:12.145Z,67.07
2017-03-18T08:32:22.480Z,67.36
2017-03-18T08:33:32.849Z,67.27
2017-03-18T08:34:43.185Z,66.88
2017-03-18T08:35:53.217Z,66.98
2017-03-18T08:37:03.553Z,66.98
2017-03-18T08:38:13.900Z,67.11
2017-03-18T08:39:24.265Z,66.72
2017-03-18T08:40:34.616Z,66.82
2017-03-18T08:41:44.961Z,66.82
2017-03-18T08:42:55.313Z,66.92
2017-03-18T08:44:05.648Z,66.44
2017-03-18T08:45:16.014Z,67.01
2017-03-18T08:46:26.353Z,66.98
2017-03-18T08:47:36.698Z,67.27
2017-03-18T08:48:47.065Z,67.07
2017-03-18T08:49:57.098Z,66.98
2017-03-18T08:51:07.441Z,67.27
2017-03-18T08:52:17.810Z,67.17
2017-03-18T08:53:28.167Z,67.17
2017-03-18T08:54:38.528Z,67.27
2017-03-18T08:55:48.551Z,67.36
2017-03-18T08:56:58.576Z,67.21
2017-03-18T08:58:08.935Z,67.11
2017-03-18T08:59:19.294Z,66.63
2017-03-18T09:00:29.655Z,66.44
2017-03-18T09:01:40.007Z,66.44
2017-03-18T09:02:50.352Z,66.35
2017-03-18T09:04:00.714Z,66.35
2017-03-18T09:05:11.052Z,66.25
2017-03-18T09:06:21.405Z,66.19
2017-03-18T09:07:31.751Z,66
2017-03-18T09:08:42.108Z,65.8
2017-03-18T09:09:52.471Z,65.33
2017-03-18T09:11:02.822Z,65.36
2017-03-18T09:12:13.165Z,64.98
2017-03-18T09:13:23.525Z,65.17
2017-03-18T09:14:33.902Z,65.17
2017-03-18T09:15:44.269Z,65.39
2017-03-18T09:16:53.988Z,65.48
2017-03-18T09:18:04.336Z,65.48
2017-03-18T09:19:14.688Z,65.48
2017-03-18T09:20:24.734Z,65.48
2017-03-18T09:21:35.106Z,65.48
2017-03-18T09:22:45.465Z,65.01
2017-03-18T09:23:55.523Z,65.42
2017-03-18T09:25:05.552Z,65.04
2017-03-18T09:26:15.904Z,64.95
2017-03-18T09:27:26.272Z,64.75
2017-03-18T09:28:36.630Z,64.85
2017-03-18T09:29:46.987Z,64.88
2017-03-18T09:30:57.350Z,64.59
2017-03-18T09:32:07.401Z,64.5
2017-03-18T09:33:17.745Z,64.4
2017-03-18T09:34:27.827Z,64.5
2017-03-18T09:35:38.168Z,64.53
2017-03-18T09:36:47.903Z,64.05
2017-03-18T09:37:57.935Z,64.05
2017-03-18T09:39:08.281Z,64.53
2017-03-18T09:40:18.631Z,64.43
2017-03-18T09:41:28.982Z,64.37
2017-03-18T09:42:39.027Z,64.53
2017-03-18T09:43:49.387Z,64.66
2017-03-18T09:44:59.434Z,64.66
2017-03-18T09:46:09.784Z,64.66
2017-03-18T09:47:20.145Z,64.56
2017-03-18T09:48:30.533Z,64.66
2017-03-18T09:49:40.607Z,64.37
2017-03-18T09:50:50.674Z,64.37
2017-03-18T09:52:01.050Z,64.59
2017-03-18T09:53:11.396Z,64.5
2017-03-18T09:54:21.757Z,64.12
2017-03-18T09:55:32.116Z,64.69
2017-03-18T09:56:42.458Z,64.22
2017-03-18T09:57:52.497Z,64.12
2017-03-18T09:59:02.835Z,64.34
2017-03-18T10:00:12.873Z,64.12
2017-03-18T10:01:22.899Z,64.15
2017-03-18T10:02:33.251Z,64.15
2017-03-18T10:03:43.612Z,64.15
2017-03-18T10:04:53.982Z,63.96
2017-03-18T10:06:04.337Z,64.15
2017-03-18T10:07:14.676Z,64.28
2017-03-18T10:08:25.047Z,64.18
2017-03-18T10:09:35.099Z,64.28
2017-03-18T10:10:45.437Z,63.99
2017-03-18T10:11:55.794Z,64.18
2017-03-18T10:13:06.136Z,64.18
2017-03-18T10:14:16.180Z,64.18
2017-03-18T10:15:26.526Z,64.18
2017-03-18T10:16:36.881Z,64.28
2017-03-18T10:17:47.264Z,64.22
2017-03-18T10:18:57.308Z,64.22
2017-03-18T10:20:07.670Z,64.02
2017-03-18T10:21:18.037Z,64.02
2017-03-18T10:22:28.386Z,64.22
2017-03-18T10:23:38.430Z,64.5
2017-03-18T10:24:48.800Z,64.59
2017-03-18T10:25:59.159Z,64.47
2017-03-18T10:27:09.541Z,64.5
2017-03-18T10:28:19.576Z,64.5
2017-03-18T10:29:29.931Z,64.66
2017-03-18T10:30:40.288Z,64.37
2017-03-18T10:31:50.635Z,64.47
2017-03-18T10:33:00.676Z,64.56
2017-03-18T10:34:11.038Z,64.5
2017-03-18T10:35:21.088Z,64.79
2017-03-18T10:36:31.125Z,65.43
2017-03-18T10:37:41.487Z,65.23
2017-03-18T10:38:51.531Z,65.05
2017-03-18T10:40:01.580Z,65.23
2017-03-18T10:41:11.953Z,65.59
2017-03-18T10:42:22.311Z,65.78
2017-03-18T10:43:32.666Z,65.78
2017-03-18T10:44:43.019Z,65.2
2017-03-18T10:45:53.376Z,65.55
2017-03-18T10:47:03.424Z,65.75
2017-03-18T10:48:13.490Z,66.51
2017-03-18T10:49:23.831Z,66.8
2017-03-18T10:50:33.861Z,66.32
2017-03-18T10:51:44.205Z,66.48
2017-03-18T10:52:53.936Z,66.58
2017-03-18T10:54:04.322Z,66.09
2017-03-18T10:55:14.685Z,65.71
2017-03-18T10:56:25.041Z,66.09
2017-03-18T10:57:35.426Z,66.09
2017-03-18T10:58:45.505Z,65.81
2017-03-18T10:59:55.221Z,65.91
2017-03-18T11:01:05.580Z,66
2017-03-18T11:02:15.643Z,66.19
2017-03-18T11:03:26.002Z,66.58
2017-03-18T11:04:36.351Z,66.67
2017-03-18T11:05:46.397Z,66.58
2017-03-18T11:06:56.757Z,66.29
2017-03-18T11:08:06.821Z,66.25
2017-03-18T11:09:17.174Z,66.54
2017-03-18T11:10:27.522Z,65.88
2017-03-18T11:11:37.877Z,66.16
2017-03-18T11:12:48.227Z,65.71
2017-03-18T11:13:58.607Z,65.81
2017-03-18T11:15:08.972Z,65.33
2017-03-18T11:16:19.319Z,65.33
2017-03-18T11:17:29.664Z,65.42
2017-03-18T11:18:39.999Z,65.62
2017-03-18T11:19:50.028Z,66.06
2017-03-18T11:21:00.367Z,66.48
2017-03-18T11:22:10.723Z,65.97
2017-03-18T11:23:21.116Z,65.88
2017-03-18T11:24:31.152Z,65.71
2017-03-18T11:25:41.507Z,65.62
2017-03-18T11:26:51.552Z,65.81
2017-03-18T11:28:01.587Z,65.81
2017-03-18T11:29:11.958Z,65.81
2017-03-18T11:30:22.329Z,66.38
2017-03-18T11:31:32.680Z,65.81
2017-03-18T11:32:43.039Z,65.52
2017-03-18T11:33:53.379Z,65.62
2017-03-18T11:35:03.736Z,65.52
2017-03-18T11:36:14.077Z,65.81
2017-03-18T11:37:24.427Z,65.71
2017-03-18T11:38:34.745Z,65.52
2017-03-18T11:39:44.470Z,65.42
2017-03-18T11:40:54.811Z,65.14
2017-03-18T11:42:05.154Z,65.23
2017-03-18T11:43:15.518Z,65.52
2017-03-18T11:44:25.549Z,65.23
2017-03-18T11:45:35.908Z,65.23
2017-03-18T11:46:46.251Z,65.42
2017-03-18T11:47:56.313Z,65.62
2017-03-18T11:49:06.663Z,65.23
2017-03-18T11:50:17.025Z,65.14
2017-03-18T11:51:27.385Z,64.69
2017-03-18T11:52:37.738Z,64.31
2017-03-18T11:53:48.119Z,64.5
2017-03-18T11:54:58.483Z,64.4
2017-03-18T11:56:08.519Z,64.72
2017-03-18T11:57:18.870Z,64.43
2017-03-18T11:58:28.939Z,64.25
2017-03-18T11:59:39.306Z,63.76
2017-03-18T12:00:49.673Z,63.99
2017-03-18T12:02:00.030Z,63.99
2017-03-18T12:03:10.388Z,64.09
2017-03-18T12:04:20.741Z,64.37
2017-03-18T12:05:31.116Z,63.99
2017-03-18T12:06:41.474Z,64.28
2017-03-18T12:07:51.837Z,64.28
2017-03-18T12:09:02.187Z,64.18
2017-03-18T12:10:12.543Z,64.47
2017-03-18T12:11:22.889Z,64.66
2017-03-18T12:12:33.271Z,64.85
2017-03-18T12:13:43.640Z,64.72
2017-03-18T12:14:53.374Z,65.3
2017-03-18T12:16:03.411Z,65.2
2017-03-18T12:17:13.788Z,65.39
2017-03-18T12:18:23.832Z,64.92
2017-03-18T12:19:34.197Z,64.63
2017-03-18T12:20:44.561Z,64.72
2017-03-18T12:21:54.596Z,64.63
2017-03-18T12:23:04.946Z,64.82
2017-03-18T12:24:15.320Z,64.25
2017-03-18T12:25:25.365Z,64.63
2017-03-18T12:26:35.717Z,64.82
2017-03-18T12:27:46.076Z,65.49
2017-03-18T12:28:56.419Z,65.39
2017-03-18T12:30:06.446Z,65.01
2017-03-18T12:31:16.792Z,65.26
2017-03-18T12:32:26.844Z,64.98
2017-03-18T12:33:37.195Z,65.17
2017-03-18T12:34:47.589Z,65.46
2017-03-18T12:35:57.946Z,65.55
2017-03-18T12:37:08.011Z,65.65
2017-03-18T12:38:18.386Z,65.33
2017-03-18T12:39:28.438Z,64.98
2017-03-18T12:40:38.727Z,65.26
2017-03-18T12:41:48.748Z,64.4
2017-03-18T12:42:58.785Z,64.12
2017-03-18T12:44:09.128Z,64.79
2017-03-18T12:45:19.471Z,64.53
2017-03-18T12:46:29.837Z,64.43
2017-03-18T12:47:40.179Z,64.25
2017-03-18T12:48:50.210Z,64.25
2017-03-18T12:50:00.258Z,64.15
2017-03-18T12:51:10.620Z,64.15
2017-03-18T12:52:20.966Z,63.96
2017-03-18T12:53:31.003Z,64.15
2017-03-18T12:54:41.359Z,64.15
2017-03-18T12:55:51.711Z,64.34
2017-03-18T12:57:01.752Z,64.53
2017-03-18T12:58:12.114Z,64.43
2017-03-18T12:59:21.850Z,64.63
2017-03-18T13:00:32.197Z,64.43
2017-03-18T13:01:42.554Z,64.53
2017-03-18T13:02:52.891Z,64.63
2017-03-18T13:04:03.240Z,64.72
2017-03-18T13:05:13.614Z,64.43
2017-03-18T13:06:23.661Z,64.43
2017-03-18T13:07:34.038Z,64.53
2017-03-18T13:08:44.095Z,64.53
2017-03-18T13:09:54.447Z,64.63
2017-03-18T13:11:04.805Z,64.63
2017-03-18T13:12:15.165Z,64.43
2017-03-18T13:13:25.533Z,64.25
2017-03-18T13:14:35.903Z,63.96
2017-03-18T13:15:45.929Z,64.34
2017-03-18T13:16:55.955Z,64.43
2017-03-18T13:18:06.311Z,64.34
2017-03-18T13:19:16.655Z,65.36
2017-03-18T13:20:27.019Z,65.26
2017-03-18T13:21:37.047Z,65.81
2017-03-18T13:22:47.099Z,65.71
2017-03-18T13:23:57.128Z,65.81
2017-03-18T13:25:07.472Z,65.52
2017-03-18T13:26:17.827Z,65.71
2017-03-18T13:27:28.187Z,64.95
2017-03-18T13:28:38.566Z,65.05
2017-03-18T13:29:48.928Z,65.17
2017-03-18T13:30:58.958Z,65.14
2017-03-18T13:32:09.316Z,64.95
2017-03-18T13:33:19.695Z,64.95
2017-03-18T13:34:30.079Z,65.14
2017-03-18T13:35:40.116Z,64.98
2017-03-18T13:36:50.468Z,65.17
2017-03-18T13:38:00.815Z,64.89
2017-03-18T13:39:10.844Z,65.23
2017-03-18T13:40:21.189Z,65.71
2017-03-18T13:41:31.524Z,65.42
2017-03-18T13:42:41.885Z,65.33
2017-03-18T13:43:51.614Z,65.14
2017-03-18T13:45:01.987Z,65.71
2017-03-18T13:46:12.039Z,65.62
2017-03-18T13:47:22.407Z,64.95
2017-03-18T13:48:32.758Z,64.09
2017-03-18T13:49:42.788Z,64.69
2017-03-18T13:50:53.132Z,64.4
2017-03-18T13:52:02.859Z,64.15
2017-03-18T13:53:13.212Z,63.96
2017-03-18T13:54:23.268Z,64.34
2017-03-18T13:55:33.630Z,64.72
2017-03-18T13:56:43.961Z,64.34
2017-03-18T13:57:54.315Z,64.43
2017-03-18T13:59:04.699Z,65.17
2017-03-18T14:00:15.062Z,65.26
2017-03-18T14:01:25.086Z,65.55
2017-03-18T14:02:35.438Z,65.75
2017-03-18T14:03:45.489Z,65.71
2017-03-18T14:04:55.531Z,65.52
2017-03-18T14:06:05.586Z,65.52
2017-03-18T14:07:15.943Z,65.62
2017-03-18T14:08:26.301Z,65.33
2017-03-18T14:09:36.348Z,65.52
2017-03-18T14:10:46.675Z,65.91
2017-03-18T14:11:57.053Z,66.06
2017-03-18T14:13:07.114Z,66.16
2017-03-18T14:14:17.478Z,66.54
2017-03-18T14:15:27.832Z,66.54
2017-03-18T14:16:38.179Z,66.25
2017-03-18T14:17:48.526Z,66.64
2017-03-18T14:18:58.893Z,66.64
2017-03-18T14:20:09.258Z,66.25
2017-03-18T14:21:19.613Z,66.35
2017-03-18T14:22:29.651Z,66.32
2017-03-18T14:23:40.033Z,66.51
2017-03-18T14:24:50.381Z,66.41
2017-03-18T14:26:00.749Z,65.94
2017-03-18T14:27:11.025Z,65.49
2017-03-18T14:28:21.389Z,65.11
2017-03-18T14:29:31.181Z,65.52
2017-03-18T14:30:41.551Z,64.95
2017-03-18T14:31:51.885Z,65.23
2017-03-18T14:33:02.228Z,64.95
2017-03-18T14:34:12.587Z,64.66
2017-03-18T14:35:22.926Z,64.59
2017-03-18T14:36:33.311Z,64.4
2017-03-18T14:37:43.367Z,64.89
2017-03-18T14:38:53.723Z,65.46
2017-03-18T14:40:04.111Z,65.17
2017-03-18T14:41:14.460Z,64.98
2017-03-18T14:42:24.496Z,65.26
2017-03-18T14:43:34.851Z,65.55
2017-03-18T14:44:45.194Z,65.42
2017-03-18T14:45:54.923Z,65.42
2017-03-18T14:47:05.250Z,65.33
2017-03-18T14:48:15.601Z,65.14
2017-03-18T14:49:25.641Z,65.42
2017-03-18T14:50:36.037Z,66.38
2017-03-18T14:51:46.376Z,65.91
2017-03-18T14:52:56.728Z,66.35
2017-03-18T14:54:07.104Z,66.54
2017-03-18T14:55:17.471Z,66.16
2017-03-18T14:56:27.811Z,66.54
2017-03-18T14:57:38.180Z,66.54
2017-03-18T14:58:48.556Z,66.93
2017-03-18T14:59:58.275Z,66.45
2017-03-18T15:01:08.332Z,67.08
2017-03-18T15:02:18.708Z,66.99
2017-03-18T15:03:28.758Z,66.32
2017-03-18T15:04:39.115Z,66.41
2017-03-18T15:05:49.480Z,66.41
2017-03-18T15:06:59.837Z,66.41
2017-03-18T15:08:10.194Z,66.7
2017-03-18T15:09:20.549Z,66.7
2017-03-18T15:10:30.924Z,67.43
2017-03-18T15:11:41.280Z,67.14
2017-03-18T15:12:51.649Z,67.24
2017-03-18T15:14:01.997Z,67.34
2017-03-18T15:15:12.348Z,66.67
2017-03-18T15:16:22.707Z,66.57
2017-03-18T15:17:32.424Z,66.76
2017-03-18T15:18:42.782Z,66.96
2017-03-18T15:19:53.146Z,66.61
2017-03-18T15:21:03.503Z,66.86
2017-03-18T15:22:13.850Z,66.86
2017-03-18T15:23:24.220Z,66.47
2017-03-18T15:24:34.258Z,66.89
2017-03-18T15:25:44.621Z,66.61
2017-03-18T15:26:55.003Z,66.09
2017-03-18T15:28:05.349Z,66.47
2017-03-18T15:29:15.707Z,66.38
2017-03-18T15:30:26.066Z,67.05
2017-03-18T15:31:36.423Z,66.41
2017-03-18T15:32:46.780Z,66.51
2017-03-18T15:33:57.136Z,66.8
2017-03-18T15:35:07.479Z,66.7
2017-03-18T15:36:17.815Z,66.09
2017-03-18T15:37:28.158Z,66.28